sensor_id;sensor_type;location;lat;lon;timestamp;pressure;altitude;pressure_sealevel;temperature;humidity
64827;BME280;51265;53.972;12.286;2022-09-24T00:01:55;100654.22;;;9.25;100.00
64827;BME280;51265;53.972;12.286;2022-09-24T00:04:24;100652.00;;;9.27;100.00
64827;BME280;51265;53.972;12.286;2022-09-24T00:06:50;100651.72;;;9.29;100.00
64827;BME280;51265;53.972;12.286;2022-09-24T00:09:19;100649.22;;;9.32;100.00
64827;BME280;51265;53.972;12.286;2022-09-24T00:11:48;100640.69;;;9.34;100.00
64827;BME280;51265;53.972;12.286;2022-09-24T00:14:15;100643.94;;;9.36;100.00
64827;BME280;51265;53.972;12.286;2022-09-24T00:16:42;100638.22;;;9.32;100.00
64827;BME280;51265;53.972;12.286;2022-09-24T00:19:10;100639.06;;;9.33;100.00
64827;BME280;51265;53.972;12.286;2022-09-24T00:21:37;100637.19;;;9.23;100.00
64827;BME280;51265;53.972;12.286;2022-09-24T00:24:08;100636.75;;;9.16;100.00
64827;BME280;51265;53.972;12.286;2022-09-24T00:26:35;100637.94;;;9.05;100.00
64827;BME280;51265;53.972;12.286;2022-09-24T00:29:19;100633.06;;;8.96;100.00
64827;BME280;51265;53.972;12.286;2022-09-24T00:31:46;100624.88;;;8.91;100.00
64827;BME280;51265;53.972;12.286;2022-09-24T00:34:12;100634.22;;;8.85;100.00
64827;BME280;51265;53.972;12.286;2022-09-24T00:36:38;100631.53;;;8.80;100.00
64827;BME280;51265;53.972;12.286;2022-09-24T00:39:04;100636.78;;;8.77;100.00
64827;BME280;51265;53.972;12.286;2022-09-24T00:41:33;100634.88;;;8.72;100.00
64827;BME280;51265;53.972;12.286;2022-09-24T00:43:59;100635.47;;;8.69;100.00
64827;BME280;51265;53.972;12.286;2022-09-24T00:49:04;100641.03;;;8.59;100.00
64827;BME280;51265;53.972;12.286;2022-09-24T00:51:32;100637.75;;;8.57;100.00
64827;BME280;51265;53.972;12.286;2022-09-24T00:54:00;100639.97;;;8.55;100.00
64827;BME280;51265;53.972;12.286;2022-09-24T00:56:30;100637.50;;;8.53;100.00
64827;BME280;51265;53.972;12.286;2022-09-24T00:58:59;100639.69;;;8.51;100.00
64827;BME280;51265;53.972;12.286;2022-09-24T01:01:27;100647.16;;;8.45;100.00
64827;BME280;51265;53.972;12.286;2022-09-24T01:03:56;100648.03;;;8.41;100.00
64827;BME280;51265;53.972;12.286;2022-09-24T01:06:23;100644.47;;;8.40;100.00
64827;BME280;51265;53.972;12.286;2022-09-24T01:08:50;100636.75;;;8.42;100.00
64827;BME280;51265;53.972;12.286;2022-09-24T01:11:31;100632.88;;;8.43;100.00
64827;BME280;51265;53.972;12.286;2022-09-24T01:32:16;100623.41;;;8.65;100.00
64827;BME280;51265;53.972;12.286;2022-09-24T01:37:33;100616.28;;;8.64;100.00
64827;BME280;51265;53.972;12.286;2022-09-24T01:40:02;100610.28;;;8.62;100.00
64827;BME280;51265;53.972;12.286;2022-09-24T01:42:30;100606.94;;;8.65;100.00
64827;BME280;51265;53.972;12.286;2022-09-24T01:44:57;100608.03;;;8.64;100.00
64827;BME280;51265;53.972;12.286;2022-09-24T01:47:35;100600.97;;;8.58;100.00
64827;BME280;51265;53.972;12.286;2022-09-24T01:50:07;100604.22;;;8.60;100.00
64827;BME280;51265;53.972;12.286;2022-09-24T01:52:38;100606.97;;;8.60;100.00
64827;BME280;51265;53.972;12.286;2022-09-24T01:55:09;100609.72;;;8.60;100.00
64827;BME280;51265;53.972;12.286;2022-09-24T01:57:44;100601.44;;;8.65;100.00
64827;BME280;51265;53.972;12.286;2022-09-24T02:00:14;100599.81;;;8.64;100.00
64827;BME280;51265;53.972;12.286;2022-09-24T02:03:07;100592.69;;;8.63;100.00
64827;BME280;51265;53.972;12.286;2022-09-24T02:08:13;100593.78;;;8.62;100.00
64827;BME280;51265;53.972;12.286;2022-09-24T02:10:46;100590.47;;;8.65;100.00
64827;BME280;51265;53.972;12.286;2022-09-24T02:13:16;100585.25;;;8.63;100.00
64827;BME280;51265;53.972;12.286;2022-09-24T02:15:47;100585.56;;;8.62;100.00
64827;BME280;51265;53.972;12.286;2022-09-24T02:18:16;100577.34;;;8.57;100.00
64827;BME280;51265;53.972;12.286;2022-09-24T02:20:45;100581.75;;;8.53;100.00
64827;BME280;51265;53.972;12.286;2022-09-24T02:23:12;100575.25;;;8.48;100.00
64827;BME280;51265;53.972;12.286;2022-09-24T02:25:53;100581.84;;;8.42;100.00
64827;BME280;51265;53.972;12.286;2022-09-24T02:28:22;100577.50;;;8.36;100.00
64827;BME280;51265;53.972;12.286;2022-09-24T02:30:52;100580.84;;;8.28;100.00
64827;BME280;51265;53.972;12.286;2022-09-24T02:33:20;100585.00;;;8.20;100.00
64827;BME280;51265;53.972;12.286;2022-09-24T02:36:07;100587.19;;;8.18;100.00
64827;BME280;51265;53.972;12.286;2022-09-24T02:38:33;100592.66;;;8.18;100.00
64827;BME280;51265;53.972;12.286;2022-09-24T02:41:00;100589.66;;;8.20;100.00
64827;BME280;51265;53.972;12.286;2022-09-24T02:43:26;100599.19;;;8.28;100.00
64827;BME280;51265;53.972;12.286;2022-09-24T02:45:58;100591.81;;;8.28;100.00
64827;BME280;51265;53.972;12.286;2022-09-24T02:48:23;100583.59;;;8.23;100.00
64827;BME280;51265;53.972;12.286;2022-09-24T02:50:49;100580.88;;;8.18;100.00
64827;BME280;51265;53.972;12.286;2022-09-24T02:53:15;100579.25;;;8.17;100.00
64827;BME280;51265;53.972;12.286;2022-09-24T02:55:41;100575.94;;;8.15;100.00
64827;BME280;51265;53.972;12.286;2022-09-24T03:01:55;100575.94;;;8.15;100.00
64827;BME280;51265;53.972;12.286;2022-09-24T03:04:21;100570.47;;;8.15;100.00
64827;BME280;51265;53.972;12.286;2022-09-24T03:06:47;100571.34;;;8.05;100.00
64827;BME280;51265;53.972;12.286;2022-09-24T03:09:31;100569.47;;;8.01;100.00
64827;BME280;51265;53.972;12.286;2022-09-24T03:11:57;100573.31;;;7.99;100.00
64827;BME280;51265;53.972;12.286;2022-09-24T03:14:25;100577.72;;;7.95;100.00
64827;BME280;51265;53.972;12.286;2022-09-24T03:16:51;100576.13;;;7.84;100.00
64827;BME280;51265;53.972;12.286;2022-09-24T03:19:17;100586.06;;;7.75;100.00
64827;BME280;51265;53.972;12.286;2022-09-24T03:21:42;100586.63;;;7.67;100.00
64827;BME280;51265;53.972;12.286;2022-09-24T03:24:09;100586.38;;;7.63;100.00
64827;BME280;51265;53.972;12.286;2022-09-24T03:26:34;100584.47;;;7.59;100.00
64827;BME280;51265;53.972;12.286;2022-09-24T03:29:00;100591.06;;;7.58;100.00
64827;BME280;51265;53.972;12.286;2022-09-24T03:31:26;100597.88;;;7.60;100.00
64827;BME280;51265;53.972;12.286;2022-09-24T03:33:52;100599.53;;;7.61;100.00
64827;BME280;51265;53.972;12.286;2022-09-24T03:36:20;100595.69;;;7.62;100.00
64827;BME280;51265;53.972;12.286;2022-09-24T03:38:53;100603.63;;;7.64;100.00
64827;BME280;51265;53.972;12.286;2022-09-24T03:41:22;100603.06;;;7.67;100.00
64827;BME280;51265;53.972;12.286;2022-09-24T03:43:48;100593.75;;;7.68;100.00
64827;BME280;51265;53.972;12.286;2022-09-24T03:46:14;100589.34;;;7.72;100.00
64827;BME280;51265;53.972;12.286;2022-09-24T03:48:42;100595.09;;;7.76;100.00
64827;BME280;51265;53.972;12.286;2022-09-24T03:51:16;100595.34;;;7.79;100.00
64827;BME280;51265;53.972;12.286;2022-09-24T03:53:47;100592.63;;;7.79;100.00
64827;BME280;51265;53.972;12.286;2022-09-24T03:56:13;100584.38;;;7.79;100.00
64827;BME280;51265;53.972;12.286;2022-09-24T03:58:39;100582.16;;;7.81;100.00
64827;BME280;51265;53.972;12.286;2022-09-24T04:01:08;100577.28;;;7.78;100.00
64827;BME280;51265;53.972;12.286;2022-09-24T04:03:35;100581.09;;;7.77;100.00
64827;BME280;51265;53.972;12.286;2022-09-24T04:06:01;100575.59;;;7.77;100.00
64827;BME280;51265;53.972;12.286;2022-09-24T04:08:27;100570.09;;;7.87;100.00
64827;BME280;51265;53.972;12.286;2022-09-24T04:10:53;100571.44;;;7.90;100.00
64827;BME280;51265;53.972;12.286;2022-09-24T04:13:20;100564.59;;;7.87;100.00
64827;BME280;51265;53.972;12.286;2022-09-24T04:15:45;100562.97;;;7.86;100.00
64827;BME280;51265;53.972;12.286;2022-09-24T04:18:13;100563.78;;;7.87;100.00
64827;BME280;51265;53.972;12.286;2022-09-24T04:20:39;100564.06;;;7.90;100.00
64827;BME280;51265;53.972;12.286;2022-09-24T04:23:06;100559.13;;;7.87;100.00
64827;BME280;51265;53.972;12.286;2022-09-24T04:25:32;100558.91;;;7.79;100.00
64827;BME280;51265;53.972;12.286;2022-09-24T04:28:03;100559.72;;;7.79;100.00
64827;BME280;51265;53.972;12.286;2022-09-24T04:30:31;100560.81;;;7.78;100.00
64827;BME280;51265;53.972;12.286;2022-09-24T04:32:57;100556.97;;;7.79;100.00
64827;BME280;51265;53.972;12.286;2022-09-24T04:35:27;100563.00;;;7.76;100.00
64827;BME280;51265;53.972;12.286;2022-09-24T04:37:55;100560.31;;;7.71;100.00
64827;BME280;51265;53.972;12.286;2022-09-24T04:40:21;100555.41;;;7.63;100.00
64827;BME280;51265;53.972;12.286;2022-09-24T04:42:47;100563.91;;;7.56;100.00
64827;BME280;51265;53.972;12.286;2022-09-24T04:45:14;100562.59;;;7.48;100.00
64827;BME280;51265;53.972;12.286;2022-09-24T04:47:48;100562.63;;;7.38;100.00
64827;BME280;51265;53.972;12.286;2022-09-24T04:50:21;100568.13;;;7.28;100.00
64827;BME280;51265;53.972;12.286;2022-09-24T04:52:52;100567.59;;;7.21;100.00
64827;BME280;51265;53.972;12.286;2022-09-24T04:55:18;100564.59;;;7.12;100.00
64827;BME280;51265;53.972;12.286;2022-09-24T04:57:48;100575.84;;;7.11;100.00
64827;BME280;51265;53.972;12.286;2022-09-24T05:00:18;100582.16;;;7.11;100.00
64827;BME280;51265;53.972;12.286;2022-09-24T05:02:45;100574.47;;;7.13;100.00
64827;BME280;51265;53.972;12.286;2022-09-24T05:05:11;100576.41;;;7.08;100.00
64827;BME280;51265;53.972;12.286;2022-09-24T05:07:38;100582.97;;;7.07;100.00
64827;BME280;51265;53.972;12.286;2022-09-24T05:10:05;100584.63;;;7.03;100.00
64827;BME280;51265;53.972;12.286;2022-09-24T05:12:31;100589.53;;;7.01;100.00
64827;BME280;51265;53.972;12.286;2022-09-24T05:14:59;100589.00;;;7.04;100.00
64827;BME280;51265;53.972;12.286;2022-09-24T05:17:28;100586.78;;;7.06;100.00
64827;BME280;51265;53.972;12.286;2022-09-24T05:19:54;100595.56;;;7.08;100.00
64827;BME280;51265;53.972;12.286;2022-09-24T05:22:24;100595.00;;;7.16;100.00
64827;BME280;51265;53.972;12.286;2022-09-24T05:24:50;100606.47;;;7.23;100.00
64827;BME280;51265;53.972;12.286;2022-09-24T05:27:16;100599.34;;;7.27;100.00
64827;BME280;51265;53.972;12.286;2022-09-24T05:29:44;100609.75;;;7.35;100.00
64827;BME280;51265;53.972;12.286;2022-09-24T05:32:13;100604.81;;;7.42;100.00
64827;BME280;51265;53.972;12.286;2022-09-24T05:34:43;100604.78;;;7.47;100.00
64827;BME280;51265;53.972;12.286;2022-09-24T05:37:10;100602.59;;;7.49;100.00
64827;BME280;51265;53.972;12.286;2022-09-24T05:39:36;100598.75;;;7.51;100.00
64827;BME280;51265;53.972;12.286;2022-09-24T05:42:02;100595.16;;;7.55;100.00
64827;BME280;51265;53.972;12.286;2022-09-24T05:44:29;100597.06;;;7.60;100.00
64827;BME280;51265;53.972;12.286;2022-09-24T05:46:56;100603.63;;;7.64;100.00
64827;BME280;51265;53.972;12.286;2022-09-24T05:49:22;100603.59;;;7.69;100.00
64827;BME280;51265;53.972;12.286;2022-09-24T05:51:49;100603.03;;;7.77;100.00
64827;BME280;51265;53.972;12.286;2022-09-24T05:54:16;100611.75;;;7.89;100.00
64827;BME280;51265;53.972;12.286;2022-09-24T05:56:42;100616.38;;;7.99;100.00
64827;BME280;51265;53.972;12.286;2022-09-24T05:59:08;100612.22;;;8.12;100.00
64827;BME280;51265;53.972;12.286;2022-09-24T06:01:34;100614.84;;;8.27;100.00
64827;BME280;51265;53.972;12.286;2022-09-24T06:04:00;100609.00;;;8.44;100.00
64827;BME280;51265;53.972;12.286;2022-09-24T06:06:26;100611.34;;;8.61;100.00
64827;BME280;51265;53.972;12.286;2022-09-24T06:08:53;100602.44;;;8.79;100.00
64827;BME280;51265;53.972;12.286;2022-09-24T06:11:19;100595.72;;;8.95;100.00
64827;BME280;51265;53.972;12.286;2022-09-24T06:13:47;100602.09;;;9.15;100.00
64827;BME280;51265;53.972;12.286;2022-09-24T06:16:13;100594.25;;;9.32;100.00
64827;BME280;51265;53.972;12.286;2022-09-24T06:18:41;100591.38;;;9.42;100.00
64827;BME280;51265;53.972;12.286;2022-09-24T06:21:10;100585.25;;;9.51;100.00
64827;BME280;51265;53.972;12.286;2022-09-24T06:23:37;100584.91;;;9.57;100.00
64827;BME280;51265;53.972;12.286;2022-09-24T06:26:04;100584.53;;;9.64;100.00
64827;BME280;51265;53.972;12.286;2022-09-24T06:28:33;100586.63;;;9.72;100.00
64827;BME280;51265;53.972;12.286;2022-09-24T06:30:59;100585.47;;;9.78;100.00
64827;BME280;51265;53.972;12.286;2022-09-24T06:33:26;100583.72;;;9.87;100.00
64827;BME280;51265;53.972;12.286;2022-09-24T06:35:53;100580.88;;;9.92;100.00
64827;BME280;51265;53.972;12.286;2022-09-24T06:38:19;100582.16;;;10.00;100.00
64827;BME280;51265;53.972;12.286;2022-09-24T06:40:46;100576.50;;;10.10;100.00
64827;BME280;51265;53.972;12.286;2022-09-24T06:43:15;100580.03;;;10.16;100.00
64827;BME280;51265;53.972;12.286;2022-09-24T06:45:43;100581.53;;;10.27;100.00
64827;BME280;51265;53.972;12.286;2022-09-24T06:48:13;100579.13;;;10.39;100.00
64827;BME280;51265;53.972;12.286;2022-09-24T06:50:42;100581.66;;;10.55;100.00
64827;BME280;51265;53.972;12.286;2022-09-24T06:53:09;100575.28;;;10.73;100.00
64827;BME280;51265;53.972;12.286;2022-09-24T06:55:36;100575.63;;;10.85;100.00
64827;BME280;51265;53.972;12.286;2022-09-24T06:58:04;100573.06;;;11.08;100.00
64827;BME280;51265;53.972;12.286;2022-09-24T07:00:31;100571.84;;;11.28;100.00
64827;BME280;51265;53.972;12.286;2022-09-24T07:02:57;100568.59;;;11.39;100.00
64827;BME280;51265;53.972;12.286;2022-09-24T07:05:23;100568.78;;;11.57;100.00
64827;BME280;51265;53.972;12.286;2022-09-24T07:07:49;100568.59;;;11.67;100.00
64827;BME280;51265;53.972;12.286;2022-09-24T07:10:15;100569.63;;;11.71;100.00
64827;BME280;51265;53.972;12.286;2022-09-24T07:12:42;100565.00;;;11.80;100.00
64827;BME280;51265;53.972;12.286;2022-09-24T07:15:08;100575.34;;;11.88;100.00
64827;BME280;51265;53.972;12.286;2022-09-24T07:17:35;100566.34;;;11.96;100.00
64827;BME280;51265;53.972;12.286;2022-09-24T07:20:01;100559.97;;;12.10;100.00
64827;BME280;51265;53.972;12.286;2022-09-24T07:22:27;100566.06;;;12.20;100.00
64827;BME280;51265;53.972;12.286;2022-09-24T07:24:54;100564.22;;;12.30;100.00
64827;BME280;51265;53.972;12.286;2022-09-24T07:27:20;100565.59;;;12.41;100.00
64827;BME280;51265;53.972;12.286;2022-09-24T07:29:47;100570.38;;;12.49;100.00
64827;BME280;51265;53.972;12.286;2022-09-24T07:32:22;100564.44;;;12.56;100.00
64827;BME280;51265;53.972;12.286;2022-09-24T07:34:48;100567.59;;;12.63;100.00
64827;BME280;51265;53.972;12.286;2022-09-24T07:37:14;100565.97;;;12.70;100.00
64827;BME280;51265;53.972;12.286;2022-09-24T07:39:40;100562.97;;;12.81;100.00
64827;BME280;51265;53.972;12.286;2022-09-24T07:42:06;100568.56;;;12.89;100.00
64827;BME280;51265;53.972;12.286;2022-09-24T07:44:32;100560.13;;;12.94;100.00
64827;BME280;51265;53.972;12.286;2022-09-24T07:46:58;100563.28;;;13.02;100.00
64827;BME280;51265;53.972;12.286;2022-09-24T07:49:24;100564.66;;;13.13;100.00
64827;BME280;51265;53.972;12.286;2022-09-24T07:51:52;100559.84;;;13.27;100.00
64827;BME280;51265;53.972;12.286;2022-09-24T07:54:18;100562.47;;;13.32;100.00
64827;BME280;51265;53.972;12.286;2022-09-24T07:56:44;100565.44;;;13.44;100.00
64827;BME280;51265;53.972;12.286;2022-09-24T07:59:10;100566.13;;;13.50;100.00
64827;BME280;51265;53.972;12.286;2022-09-24T08:01:36;100570.72;;;13.55;100.00
64827;BME280;51265;53.972;12.286;2022-09-24T08:04:02;100571.03;;;13.62;100.00
64827;BME280;51265;53.972;12.286;2022-09-24T08:06:29;100564.03;;;13.56;100.00
64827;BME280;51265;53.972;12.286;2022-09-24T08:08:58;100579.84;;;13.64;100.00
64827;BME280;51265;53.972;12.286;2022-09-24T08:11:24;100577.28;;;13.76;100.00
64827;BME280;51265;53.972;12.286;2022-09-24T08:13:50;100581.88;;;13.89;100.00
64827;BME280;51265;53.972;12.286;2022-09-24T08:16:17;100586.47;;;14.03;100.00
64827;BME280;51265;53.972;12.286;2022-09-24T08:18:46;100587.47;;;14.07;100.00
64827;BME280;51265;53.972;12.286;2022-09-24T08:21:12;100582.72;;;13.99;100.00
64827;BME280;51265;53.972;12.286;2022-09-24T08:23:43;100578.66;;;14.05;100.00
64827;BME280;51265;53.972;12.286;2022-09-24T08:26:10;100577.88;;;14.13;100.00
64827;BME280;51265;53.972;12.286;2022-09-24T08:28:37;100588.78;;;14.18;100.00
64827;BME280;51265;53.972;12.286;2022-09-24T08:31:06;100587.00;;;14.22;100.00
64827;BME280;51265;53.972;12.286;2022-09-24T08:33:34;100581.63;;;14.26;100.00
64827;BME280;51265;53.972;12.286;2022-09-24T08:36:03;100588.47;;;14.28;100.00
64827;BME280;51265;53.972;12.286;2022-09-24T08:38:30;100590.41;;;14.36;100.00
64827;BME280;51265;53.972;12.286;2022-09-24T08:44:02;100592.72;;;14.34;100.00
64827;BME280;51265;53.972;12.286;2022-09-24T08:46:41;100597.75;;;14.41;100.00
64827;BME280;51265;53.972;12.286;2022-09-24T08:49:39;100602.47;;;14.40;100.00
64827;BME280;51265;53.972;12.286;2022-09-24T08:52:28;100593.41;;;14.49;100.00
64827;BME280;51265;53.972;12.286;2022-09-24T08:55:03;100595.16;;;14.27;100.00
64827;BME280;51265;53.972;12.286;2022-09-24T08:57:37;100587.31;;;14.20;100.00
64827;BME280;51265;53.972;12.286;2022-09-24T09:00:13;100592.59;;;13.82;100.00
64827;BME280;51265;53.972;12.286;2022-09-24T09:02:52;100599.22;;;13.64;100.00
64827;BME280;51265;53.972;12.286;2022-09-24T09:05:26;100599.03;;;13.52;100.00
64827;BME280;51265;53.972;12.286;2022-09-24T09:08:09;100596.47;;;13.33;100.00
64827;BME280;51265;53.972;12.286;2022-09-24T09:10:40;100597.88;;;13.21;100.00
64827;BME280;51265;53.972;12.286;2022-09-24T09:13:14;100601.44;;;13.22;100.00
64827;BME280;51265;53.972;12.286;2022-09-24T09:15:47;100606.28;;;13.39;100.00
64827;BME280;51265;53.972;12.286;2022-09-24T09:18:41;100594.84;;;13.63;100.00
64827;BME280;51265;53.972;12.286;2022-09-24T09:21:23;100591.19;;;13.54;100.00
64827;BME280;51265;53.972;12.286;2022-09-24T09:23:52;100597.50;;;13.45;100.00
64827;BME280;51265;53.972;12.286;2022-09-24T09:26:21;100597.00;;;13.35;100.00
64827;BME280;51265;53.972;12.286;2022-09-24T09:28:47;100604.22;;;13.53;100.00
64827;BME280;51265;53.972;12.286;2022-09-24T09:31:38;100608.34;;;13.64;100.00
64827;BME280;51265;53.972;12.286;2022-09-24T09:34:20;100603.44;;;13.61;100.00
64827;BME280;51265;53.972;12.286;2022-09-24T09:42:31;100609.59;;;14.07;100.00
64827;BME280;51265;53.972;12.286;2022-09-24T09:45:06;100604.09;;;14.41;100.00
64827;BME280;51265;53.972;12.286;2022-09-24T09:47:47;100605.47;;;14.53;100.00
64827;BME280;51265;53.972;12.286;2022-09-24T09:52:48;100600.03;;;14.30;100.00
64827;BME280;51265;53.972;12.286;2022-09-24T09:55:26;100597.75;;;14.32;100.00
64827;BME280;51265;53.972;12.286;2022-09-24T09:58:07;100595.63;;;14.29;100.00
64827;BME280;51265;53.972;12.286;2022-09-24T10:00:35;100601.88;;;14.52;100.00
64827;BME280;51265;53.972;12.286;2022-09-24T10:03:02;100599.72;;;14.75;100.00
64827;BME280;51265;53.972;12.286;2022-09-24T10:05:29;100594.63;;;15.12;99.00
64827;BME280;51265;53.972;12.286;2022-09-24T10:07:57;100595.69;;;15.37;99.31
64827;BME280;51265;53.972;12.286;2022-09-24T10:10:26;100587.34;;;15.45;93.49
64827;BME280;51265;53.972;12.286;2022-09-24T10:13:06;100592.38;;;15.90;94.15
64827;BME280;51265;53.972;12.286;2022-09-24T10:15:38;100586.59;;;16.25;93.98
64827;BME280;51265;53.972;12.286;2022-09-24T10:18:04;100574.09;;;15.89;89.70
64827;BME280;51265;53.972;12.286;2022-09-24T10:20:31;100588.34;;;16.09;92.52
64827;BME280;51265;53.972;12.286;2022-09-24T10:23:01;100593.66;;;16.43;93.26
64827;BME280;51265;53.972;12.286;2022-09-24T10:25:29;100593.81;;;16.89;93.15
64827;BME280;51265;53.972;12.286;2022-09-24T10:28:00;100588.81;;;17.28;88.98
64827;BME280;51265;53.972;12.286;2022-09-24T10:30:57;100577.91;;;17.59;85.52
64827;BME280;51265;53.972;12.286;2022-09-24T10:33:25;100572.59;;;17.66;83.32
64827;BME280;51265;53.972;12.286;2022-09-24T10:36:03;100580.94;;;17.66;83.39
64827;BME280;51265;53.972;12.286;2022-09-24T10:38:29;100576.22;;;17.91;83.78
64827;BME280;51265;53.972;12.286;2022-09-24T10:40:56;100556.72;;;17.79;80.18
64827;BME280;51265;53.972;12.286;2022-09-24T10:43:24;100556.34;;;17.56;81.48
64827;BME280;51265;53.972;12.286;2022-09-24T10:48:56;100567.75;;;17.88;81.48
64827;BME280;51265;53.972;12.286;2022-09-24T10:51:53;100576.38;;;18.35;81.69
64827;BME280;51265;53.972;12.286;2022-09-24T10:54:42;100581.03;;;18.72;79.70
64827;BME280;51265;53.972;12.286;2022-09-24T10:57:30;100565.97;;;18.88;77.36
64827;BME280;51265;53.972;12.286;2022-09-24T11:00:06;100563.81;;;18.98;76.83
64827;BME280;51265;53.972;12.286;2022-09-24T11:05:09;100560.44;;;19.52;76.63
64827;BME280;51265;53.972;12.286;2022-09-24T11:08:00;100542.47;;;19.65;72.51
64827;BME280;51265;53.972;12.286;2022-09-24T11:10:56;100538.72;;;19.93;72.51
64827;BME280;51265;53.972;12.286;2022-09-24T11:13:35;100531.06;;;19.89;71.06
64827;BME280;51265;53.972;12.286;2022-09-24T11:19:05;100516.25;;;19.70;69.58
64827;BME280;51265;53.972;12.286;2022-09-24T11:30:12;100537.16;;;20.11;69.86
64827;BME280;51265;53.972;12.286;2022-09-24T11:33:14;100530.03;;;20.52;68.39
64827;BME280;51265;53.972;12.286;2022-09-24T11:44:42;100489.44;;;21.27;62.83
64827;BME280;51265;53.972;12.286;2022-09-24T11:52:51;100503.72;;;20.96;64.54
64827;BME280;51265;53.972;12.286;2022-09-24T11:55:23;100514.56;;;21.20;65.27
64827;BME280;51265;53.972;12.286;2022-09-24T11:57:56;100486.41;;;21.36;62.59
64827;BME280;51265;53.972;12.286;2022-09-24T12:00:33;100523.41;;;22.25;63.27
64827;BME280;51265;53.972;12.286;2022-09-24T12:03:08;100516.69;;;23.00;61.68
64827;BME280;51265;53.972;12.286;2022-09-24T12:05:44;100455.91;;;22.81;58.59
64827;BME280;51265;53.972;12.286;2022-09-24T12:08:33;100486.38;;;22.79;59.56
64827;BME280;51265;53.972;12.286;2022-09-24T12:11:03;100486.19;;;22.99;59.18
64827;BME280;51265;53.972;12.286;2022-09-24T12:14:35;100494.69;;;23.06;59.70
64827;BME280;51265;53.972;12.286;2022-09-24T12:16:41;100524.16;;;23.26;61.48
64827;BME280;51265;53.972;12.286;2022-09-24T12:19:31;100517.81;;;23.36;61.51
64827;BME280;51265;53.972;12.286;2022-09-24T12:22:01;100515.78;;;23.30;60.73
64827;BME280;51265;53.972;12.286;2022-09-24T12:24:42;100462.34;;;22.85;58.23
64827;BME280;51265;53.972;12.286;2022-09-24T12:27:18;100495.00;;;22.63;60.83
64827;BME280;51265;53.972;12.286;2022-09-24T12:32:59;100473.75;;;21.99;61.59
64827;BME280;51265;53.972;12.286;2022-09-24T12:35:42;100483.69;;;21.39;62.66
64827;BME280;51265;53.972;12.286;2022-09-24T12:38:27;100509.13;;;21.08;65.12
64827;BME280;51265;53.972;12.286;2022-09-24T12:44:02;100521.72;;;20.36;68.56
64827;BME280;51265;53.972;12.286;2022-09-24T12:46:38;100522.63;;;20.05;69.93
64827;BME280;51265;53.972;12.286;2022-09-24T12:49:32;100502.53;;;19.64;68.21
64827;BME280;51265;53.972;12.286;2022-09-24T12:52:02;100516.31;;;19.41;69.82
64827;BME280;51265;53.972;12.286;2022-09-24T12:54:32;100507.50;;;19.24;69.40
64827;BME280;51265;53.972;12.286;2022-09-24T12:57:12;100521.28;;;19.16;70.96
64827;BME280;51265;53.972;12.286;2022-09-24T13:02:24;100532.16;;;18.90;72.78
64827;BME280;51265;53.972;12.286;2022-09-24T13:07:40;100536.56;;;18.91;73.52
64827;BME280;51265;53.972;12.286;2022-09-24T13:12:42;100526.63;;;18.78;73.63
64827;BME280;51265;53.972;12.286;2022-09-24T13:15:37;100523.56;;;18.55;74.86
64827;BME280;51265;53.972;12.286;2022-09-24T13:20:34;100519.59;;;18.56;73.86
64827;BME280;51265;53.972;12.286;2022-09-24T13:28:27;100533.63;;;18.72;74.59
64827;BME280;51265;53.972;12.286;2022-09-24T13:31:01;100515.88;;;18.52;72.91
64827;BME280;51265;53.972;12.286;2022-09-24T13:33:30;100526.88;;;18.45;74.35
64827;BME280;51265;53.972;12.286;2022-09-24T13:36:09;100519.75;;;18.19;74.05
64827;BME280;51265;53.972;12.286;2022-09-24T13:38:43;100513.00;;;18.20;73.42
64827;BME280;51265;53.972;12.286;2022-09-24T13:41:22;100536.44;;;18.31;74.81
64827;BME280;51265;53.972;12.286;2022-09-24T13:43:55;100531.84;;;18.39;74.84
64827;BME280;51265;53.972;12.286;2022-09-24T13:46:23;100519.19;;;18.41;73.91
64827;BME280;51265;53.972;12.286;2022-09-24T13:48:54;100499.94;;;18.36;71.19
64827;BME280;51265;53.972;12.286;2022-09-24T13:51:27;100516.41;;;18.41;71.88
64827;BME280;51265;53.972;12.286;2022-09-24T13:54:04;100514.09;;;18.44;70.87
64827;BME280;51265;53.972;12.286;2022-09-24T13:56:31;100523.56;;;18.55;73.14
64827;BME280;51265;53.972;12.286;2022-09-24T13:59:08;100530.84;;;18.72;73.49
64827;BME280;51265;53.972;12.286;2022-09-24T14:01:39;100505.31;;;18.85;70.66
64827;BME280;51265;53.972;12.286;2022-09-24T14:04:21;100504.34;;;18.94;70.66
64827;BME280;51265;53.972;12.286;2022-09-24T14:06:51;100514.69;;;19.09;71.00
64827;BME280;51265;53.972;12.286;2022-09-24T14:09:26;100511.38;;;19.19;71.06
64827;BME280;51265;53.972;12.286;2022-09-24T14:11:58;100522.72;;;19.26;71.50
64827;BME280;51265;53.972;12.286;2022-09-24T14:14:28;100502.38;;;19.26;69.78
64827;BME280;51265;53.972;12.286;2022-09-24T14:17:05;100504.88;;;18.99;70.02
64827;BME280;51265;53.972;12.286;2022-09-24T14:19:31;100515.69;;;19.01;71.48
64827;BME280;51265;53.972;12.286;2022-09-24T14:22:00;100515.34;;;19.02;71.18
64827;BME280;51265;53.972;12.286;2022-09-24T14:24:53;100499.75;;;18.85;70.06
64827;BME280;51265;53.972;12.286;2022-09-24T14:27:22;100507.72;;;18.59;70.56
64827;BME280;51265;53.972;12.286;2022-09-24T14:30:00;100515.25;;;18.42;71.28
64827;BME280;51265;53.972;12.286;2022-09-24T14:32:31;100507.03;;;18.34;70.74